createdAt,value
2023-03-06T08:19:10.410Z,100.00
2023-03-06T08:22:13.994Z,100.00
2023-03-06T08:25:16.590Z,100.00
2023-03-06T08:35:46.686Z,100.00
2023-03-06T08:38:49.216Z,100.00
2023-03-06T08:41:51.806Z,100.00
2023-03-06T09:10:56.416Z,100.00
2023-03-06T09:17:15.870Z,95.27
2023-03-06T09:20:19.732Z,83.79
2023-03-06T09:23:22.442Z,78.63
2023-03-06T09:26:39.563Z,71.16
2023-03-06T09:29:46.152Z,70.15
2023-03-06T09:32:50.015Z,69.23
2023-03-06T09:35:55.252Z,66.13
2023-03-06T09:38:57.760Z,68.70
2023-03-06T09:42:00.367Z,70.39
2023-03-06T09:45:05.620Z,69.02
2023-03-06T09:48:16.079Z,70.67
2023-03-06T09:51:25.630Z,72.74
2023-03-06T09:54:41.254Z,74.01
2023-03-06T09:57:52.246Z,73.76
2023-03-06T10:01:01.237Z,72.49
2023-03-06T10:04:12.488Z,70.31
2023-03-06T10:07:21.393Z,67.73
2023-03-06T10:10:26.805Z,67.34
2023-03-06T10:13:38.520Z,69.73
2023-03-06T10:16:41.636Z,72.34
2023-03-06T10:19:47.602Z,73.47
2023-03-06T10:23:24.826Z,74.15
2023-03-06T10:26:33.474Z,75.19
2023-03-06T10:30:01.251Z,72.31
2023-03-06T10:33:10.426Z,72.34
2023-03-06T10:36:16.827Z,73.19
2023-03-06T10:39:21.585Z,72.33
2023-03-06T10:42:26.628Z,70.27
2023-03-06T10:45:40.569Z,74.26
2023-03-06T10:48:58.823Z,72.57
2023-03-06T10:52:06.772Z,71.65
2023-03-06T10:55:28.519Z,71.95
2023-03-06T10:58:32.807Z,78.83
2023-03-06T11:01:36.218Z,80.25
2023-03-06T11:04:41.903Z,80.14
2023-03-06T11:07:56.194Z,78.25
2023-03-06T11:11:01.624Z,81.39
2023-03-06T11:14:15.857Z,84.58
2023-03-06T11:17:29.348Z,85.57
2023-03-06T11:20:49.902Z,86.51
2023-03-06T11:23:56.112Z,84.93
2023-03-06T11:27:03.840Z,87.24
2023-03-06T11:30:16.182Z,85.43
2023-03-06T11:33:26.512Z,79.34
2023-03-06T11:36:35.031Z,80.22
2023-03-06T11:39:45.240Z,80.00
2023-03-06T11:42:53.873Z,85.49
2023-03-06T11:46:01.331Z,87.50
2023-03-06T11:49:21.760Z,91.01
2023-03-06T11:52:28.476Z,88.68
2023-03-06T11:55:42.932Z,86.59
2023-03-06T11:59:17.062Z,86.28
2023-03-06T12:02:32.116Z,87.34
2023-03-06T12:05:39.008Z,81.00
2023-03-06T12:08:52.846Z,76.16
2023-03-06T12:12:11.890Z,76.71
2023-03-06T12:15:24.206Z,80.92
2023-03-06T12:18:38.133Z,77.46
2023-03-06T12:21:52.268Z,80.81
2023-03-06T12:25:03.912Z,82.92
2023-03-06T12:28:37.880Z,88.46
2023-03-06T12:31:49.996Z,94.80
2023-03-06T12:35:06.078Z,91.95
2023-03-06T12:38:29.752Z,90.90
2023-03-06T12:41:42.559Z,92.28
2023-03-06T12:45:22.963Z,83.51
2023-03-06T12:48:29.292Z,83.19
2023-03-06T12:51:33.161Z,79.77
2023-03-06T12:54:39.649Z,80.81
2023-03-06T12:57:42.704Z,77.53
2023-03-06T13:01:04.883Z,82.79
2023-03-06T13:04:37.625Z,82.77
2023-03-06T13:07:58.985Z,79.46
2023-03-06T13:11:23.461Z,75.66
2023-03-06T13:14:27.600Z,72.47
2023-03-06T13:17:39.044Z,77.16
2023-03-06T13:20:44.908Z,81.42
2023-03-06T13:23:52.975Z,81.02
2023-03-06T13:27:04.500Z,77.23
2023-03-06T13:30:25.707Z,77.45
2023-03-06T13:33:55.462Z,74.15
2023-03-06T13:37:31.504Z,73.03
2023-03-06T13:40:35.661Z,73.26
2023-03-06T13:43:45.014Z,74.36
2023-03-06T13:46:58.307Z,73.40
2023-03-06T13:50:13.985Z,71.26
2023-03-06T13:53:40.705Z,73.10
2023-03-06T13:57:10.808Z,73.29
2023-03-06T14:01:00.831Z,76.98
2023-03-06T14:04:43.583Z,80.88
2023-03-06T14:07:49.017Z,82.81
2023-03-06T14:11:01.744Z,83.22
2023-03-06T14:14:04.731Z,75.24
2023-03-06T14:17:07.776Z,73.85
2023-03-06T14:20:15.773Z,73.71
2023-03-06T14:23:29.776Z,69.58
2023-03-06T14:26:34.827Z,70.78
2023-03-06T14:29:37.332Z,71.12
2023-03-06T14:32:41.669Z,70.78
2023-03-06T14:35:52.939Z,71.36
2023-03-06T14:39:00.238Z,72.37
2023-03-06T14:42:07.785Z,77.00
2023-03-06T14:45:17.098Z,78.20
2023-03-06T14:48:20.372Z,82.74
2023-03-06T14:51:25.361Z,84.09
2023-03-06T14:54:32.591Z,84.80
2023-03-06T14:57:35.227Z,84.33
2023-03-06T15:00:43.905Z,85.46
2023-03-06T15:03:50.433Z,87.32
2023-03-06T15:06:53.752Z,89.87
2023-03-06T15:09:58.835Z,86.66
2023-03-06T15:13:10.048Z,87.28
2023-03-06T15:16:25.657Z,82.78
2023-03-06T15:19:28.126Z,81.05
2023-03-06T15:22:35.142Z,81.51
2023-03-06T15:25:39.008Z,85.94
2023-03-06T15:28:41.628Z,87.37
2023-03-06T15:31:46.238Z,86.24
2023-03-06T15:34:48.847Z,82.89
2023-03-06T15:37:51.865Z,79.53
2023-03-06T15:40:57.002Z,77.45
2023-03-06T15:44:01.533Z,78.18
2023-03-06T15:47:08.680Z,78.38
2023-03-06T15:50:16.113Z,79.26
2023-03-06T15:53:19.602Z,79.76
2023-03-06T15:56:29.550Z,83.39
2023-03-06T15:59:33.208Z,86.07
2023-03-06T16:02:35.875Z,85.16
2023-03-06T16:05:38.977Z,86.43
2023-03-06T16:08:41.423Z,88.95
2023-03-06T16:11:45.728Z,90.65
2023-03-06T16:14:49.561Z,92.81
2023-03-06T16:17:52.132Z,94.55
2023-03-06T16:20:54.615Z,95.96
2023-03-06T16:23:57.079Z,97.86
2023-03-06T16:27:02.871Z,98.00
2023-03-06T16:30:06.835Z,99.69
2023-03-06T16:33:10.957Z,100.00
2023-03-06T16:36:15.637Z,100.00
2023-03-06T16:39:20.573Z,100.00
2023-03-06T16:42:24.432Z,100.00
2023-03-06T16:45:27.145Z,100.00
2023-03-06T16:48:29.644Z,100.00
2023-03-06T16:51:32.212Z,100.00
2023-03-06T16:54:34.722Z,100.00
2023-03-06T16:57:38.550Z,100.00
2023-03-06T17:00:41.134Z,100.00
2023-03-06T17:03:43.770Z,100.00
